createdAt,value
2018-03-24T00:01:04.381Z,39.37
2018-03-24T00:03:34.574Z,36.80
2018-03-24T00:06:02.970Z,38.67
2018-03-24T00:08:33.111Z,40.50
2018-03-24T00:11:02.363Z,35.70
2018-03-24T00:13:31.683Z,35.43
2018-03-24T00:16:01.062Z,36.00
2018-03-24T00:18:29.462Z,36.73
2018-03-24T00:20:58.359Z,39.60
2018-03-24T00:23:28.559Z,41.73
2018-03-24T00:25:59.502Z,39.20
2018-03-24T00:28:28.194Z,35.73
2018-03-24T00:30:56.550Z,33.90
2018-03-24T00:33:26.062Z,35.73
2018-03-24T00:35:55.830Z,38.97
2018-03-24T00:38:26.016Z,36.40
2018-03-24T00:40:54.445Z,39.10
2018-03-24T00:43:24.282Z,40.10
2018-03-24T00:45:52.683Z,52.53
2018-03-24T00:48:22.606Z,41.23
2018-03-24T00:50:51.800Z,36.27
2018-03-24T00:53:20.763Z,38.07
2018-03-24T00:55:50.098Z,39.17
2018-03-24T00:58:19.378Z,35.73
2018-03-24T01:00:48.631Z,35.93
2018-03-24T01:03:17.986Z,35.23
2018-03-24T01:05:47.186Z,35.90
2018-03-24T01:08:16.924Z,31.63
2018-03-24T01:10:46.067Z,35.93
2018-03-24T01:13:15.340Z,32.93
2018-03-24T01:15:44.116Z,34.40
2018-03-24T01:18:13.452Z,34.93
2018-03-24T01:20:41.900Z,34.40
2018-03-24T01:23:11.572Z,34.47
2018-03-24T01:25:40.043Z,34.43
2018-03-24T01:28:08.715Z,37.13
2018-03-24T01:30:38.015Z,31.57
2018-03-24T01:33:07.403Z,29.87
2018-03-24T01:35:36.626Z,32.30
2018-03-24T01:38:05.178Z,33.87
2018-03-24T01:40:35.252Z,33.00
2018-03-24T01:43:05.457Z,31.97
2018-03-24T01:45:34.864Z,32.27
2018-03-24T01:48:03.297Z,32.80
2018-03-24T01:50:32.458Z,28.17
2018-03-24T01:53:00.896Z,29.53
2018-03-24T01:55:30.728Z,27.60
2018-03-24T01:57:59.147Z,28.00
2018-03-24T02:00:30.179Z,27.47
2018-03-24T02:02:58.614Z,28.27
2018-03-24T02:05:29.739Z,28.37
2018-03-24T02:07:58.151Z,29.73
2018-03-24T02:10:27.630Z,27.27
2018-03-24T02:12:57.459Z,26.77
2018-03-24T02:15:27.562Z,27.23
2018-03-24T02:17:57.310Z,26.73
2018-03-24T02:20:27.687Z,26.67
2018-03-24T02:22:56.815Z,27.27
2018-03-24T02:25:28.430Z,30.60
2018-03-24T02:27:59.380Z,30.03
2018-03-24T02:30:28.515Z,27.50
2018-03-24T02:32:58.390Z,25.93
2018-03-24T02:35:26.788Z,27.53
2018-03-24T02:37:57.604Z,29.27
2018-03-24T02:40:26.500Z,27.27
2018-03-24T02:42:55.795Z,32.23
2018-03-24T02:45:24.179Z,29.93
2018-03-24T02:47:52.589Z,30.93
2018-03-24T02:50:20.931Z,30.80
2018-03-24T02:52:50.473Z,26.47
2018-03-24T02:55:18.805Z,26.67
2018-03-24T02:57:48.563Z,26.07
2018-03-24T03:00:17.959Z,25.17
2018-03-24T03:02:47.893Z,29.43
2018-03-24T03:05:17.124Z,24.67
2018-03-24T03:07:46.597Z,25.47
2018-03-24T03:10:15.849Z,27.70
2018-03-24T03:12:45.055Z,23.57
2018-03-24T03:15:13.649Z,23.67
2018-03-24T03:17:42.885Z,25.83
2018-03-24T03:20:11.249Z,24.40
2018-03-24T03:22:40.733Z,25.83
2018-03-24T03:25:09.083Z,24.07
2018-03-24T03:27:37.905Z,25.37
2018-03-24T03:33:14.615Z,22.40
2018-03-24T03:35:43.000Z,23.83
2018-03-24T03:38:11.442Z,22.97
2018-03-24T03:40:41.934Z,23.77
2018-03-24T03:43:11.263Z,24.73
2018-03-24T03:45:41.366Z,24.00
2018-03-24T03:48:10.502Z,22.73
2018-03-24T03:50:38.853Z,20.30
2018-03-24T03:53:07.258Z,19.50
2018-03-24T03:55:37.035Z,22.20
2018-03-24T03:58:05.641Z,22.17
2018-03-24T04:00:34.902Z,22.00
2018-03-24T04:03:05.071Z,23.10
2018-03-24T04:05:35.217Z,23.13
2018-03-24T04:08:04.363Z,23.97
2018-03-24T04:10:32.746Z,24.37
2018-03-24T04:13:01.112Z,24.93
2018-03-24T04:15:29.743Z,25.70
2018-03-24T04:17:58.563Z,25.50
2018-03-24T04:20:27.723Z,27.43
2018-03-24T04:22:56.091Z,27.13
2018-03-24T04:25:24.772Z,26.87
2018-03-24T04:27:53.159Z,28.17
2018-03-24T04:30:22.561Z,28.57
2018-03-24T04:32:51.782Z,26.87
2018-03-24T04:35:21.013Z,26.27
2018-03-24T04:37:50.311Z,27.53
2018-03-24T04:40:19.399Z,26.03
2018-03-24T04:42:48.507Z,27.37
2018-03-24T04:45:16.934Z,26.37
2018-03-24T04:47:46.294Z,27.13
2018-03-24T04:50:16.929Z,25.23
2018-03-24T04:52:45.324Z,24.80
2018-03-24T04:55:15.464Z,29.67
2018-03-24T04:57:44.841Z,25.97
2018-03-24T05:00:13.347Z,23.20
2018-03-24T05:02:41.692Z,23.77
2018-03-24T05:05:10.355Z,26.37
2018-03-24T05:07:39.880Z,22.63
2018-03-24T05:10:08.298Z,25.33
2018-03-24T05:12:37.483Z,25.80
2018-03-24T05:15:06.555Z,24.30
2018-03-24T05:17:35.167Z,26.00
2018-03-24T05:20:03.962Z,23.13
2018-03-24T05:22:33.326Z,22.03
2018-03-24T05:25:02.008Z,21.97
2018-03-24T05:27:32.434Z,25.23
2018-03-24T05:30:01.215Z,25.20
2018-03-24T05:32:29.555Z,22.63
2018-03-24T05:34:57.976Z,25.10
2018-03-24T05:37:28.514Z,23.23
2018-03-24T05:39:57.179Z,22.70
2018-03-24T05:42:27.221Z,24.73
2018-03-24T05:44:55.639Z,26.83
2018-03-24T05:47:26.760Z,25.20
2018-03-24T05:49:56.403Z,25.10
2018-03-24T05:52:24.747Z,23.03
2018-03-24T05:54:53.733Z,24.30
2018-03-24T05:57:22.360Z,28.03
2018-03-24T05:59:51.020Z,22.40
2018-03-24T06:02:19.673Z,22.33
2018-03-24T06:04:49.502Z,21.20
2018-03-24T06:07:18.767Z,20.93
2018-03-24T06:09:47.412Z,23.80
2018-03-24T06:12:16.081Z,21.23
2018-03-24T06:14:45.022Z,22.97
2018-03-24T06:17:13.761Z,26.53
2018-03-24T06:19:44.888Z,43.30
2018-03-24T06:22:13.324Z,43.13
2018-03-24T06:24:42.074Z,34.73
2018-03-24T06:27:10.751Z,28.87
2018-03-24T06:29:40.777Z,21.93
2018-03-24T06:32:09.872Z,20.47
2018-03-24T06:34:39.251Z,19.83
2018-03-24T06:37:09.396Z,19.33
2018-03-24T06:39:38.787Z,21.40
2018-03-24T06:42:07.202Z,19.23
2018-03-24T06:44:36.706Z,22.60
2018-03-24T06:47:05.092Z,22.17
2018-03-24T06:49:34.760Z,22.10
2018-03-24T06:52:03.889Z,21.80
2018-03-24T06:54:32.946Z,22.40
2018-03-24T06:57:02.258Z,21.43
2018-03-24T06:59:30.684Z,21.70
2018-03-24T07:01:59.973Z,20.80
2018-03-24T07:04:28.387Z,24.27
2018-03-24T07:06:57.828Z,22.37
2018-03-24T07:09:27.008Z,23.93
2018-03-24T07:11:55.379Z,24.37
2018-03-24T07:14:24.072Z,24.40
2018-03-24T07:16:53.317Z,24.83
2018-03-24T07:19:22.462Z,23.13
2018-03-24T07:21:52.088Z,23.77
2018-03-24T07:24:21.069Z,25.10
2018-03-24T07:26:49.607Z,26.00
2018-03-24T07:29:18.455Z,27.40
2018-03-24T07:31:49.893Z,24.97
2018-03-24T07:34:19.205Z,26.37
2018-03-24T07:36:49.106Z,26.13
2018-03-24T07:39:18.838Z,25.90
2018-03-24T07:41:47.180Z,25.60
2018-03-24T07:44:15.570Z,24.47
2018-03-24T07:46:44.561Z,25.57
2018-03-24T07:49:12.934Z,25.80
2018-03-24T07:51:42.206Z,25.80
2018-03-24T07:54:11.183Z,24.30
2018-03-24T07:56:40.276Z,24.93
2018-03-24T07:59:09.411Z,25.63
2018-03-24T08:01:38.575Z,24.20
2018-03-24T08:04:07.943Z,25.07
2018-03-24T08:06:36.363Z,24.53
2018-03-24T08:09:05.572Z,24.40
2018-03-24T08:11:34.810Z,24.07
2018-03-24T08:14:05.008Z,26.00
2018-03-24T08:16:33.959Z,25.37
2018-03-24T08:19:04.218Z,23.50
2018-03-24T08:21:33.911Z,22.20
2018-03-24T08:24:02.311Z,22.03
2018-03-24T08:26:32.910Z,22.17
2018-03-24T08:29:01.648Z,21.90
2018-03-24T08:31:30.129Z,22.73
2018-03-24T08:33:58.530Z,21.20
2018-03-24T08:36:27.760Z,18.60
2018-03-24T08:38:58.555Z,21.37
2018-03-24T08:41:27.465Z,18.30
2018-03-24T08:43:58.119Z,20.70
2018-03-24T08:46:26.533Z,17.97
2018-03-24T08:48:55.993Z,18.73
2018-03-24T08:51:24.327Z,20.27
2018-03-24T08:53:52.948Z,21.23
2018-03-24T08:56:21.317Z,19.73
2018-03-24T08:58:51.135Z,15.10
2018-03-24T09:01:19.669Z,12.43
2018-03-24T09:03:49.299Z,12.00
2018-03-24T09:06:17.957Z,13.17
2018-03-24T09:08:48.804Z,14.40
2018-03-24T09:11:17.234Z,15.07
2018-03-24T09:13:45.563Z,14.37
2018-03-24T09:16:14.800Z,15.07
2018-03-24T09:18:44.072Z,14.30
2018-03-24T09:21:13.138Z,12.17
2018-03-24T09:23:42.286Z,12.97
2018-03-24T09:26:11.743Z,13.20
2018-03-24T09:28:40.980Z,14.30
2018-03-24T09:31:09.379Z,12.17
2018-03-24T09:33:38.531Z,12.13
2018-03-24T09:36:06.957Z,11.47
2018-03-24T09:38:36.731Z,12.07
2018-03-24T09:41:05.195Z,12.63
2018-03-24T09:43:33.528Z,10.90
2018-03-24T09:46:01.901Z,10.83
2018-03-24T09:48:30.228Z,10.90
2018-03-24T09:50:59.886Z,11.00
2018-03-24T09:53:28.473Z,10.73
2018-03-24T09:55:58.315Z,10.73
2018-03-24T09:58:29.405Z,11.20
2018-03-24T10:00:59.585Z,10.47
2018-03-24T10:03:28.004Z,11.20
2018-03-24T10:05:56.406Z,10.20
2018-03-24T10:08:26.394Z,10.03
2018-03-24T10:10:56.260Z,9.20
2018-03-24T10:13:25.938Z,9.20
2018-03-24T10:15:54.604Z,9.37
2018-03-24T10:18:22.982Z,8.97
2018-03-24T10:24:23.611Z,8.87
2018-03-24T10:26:52.540Z,9.87
2018-03-24T10:29:21.623Z,8.03
2018-03-24T10:31:52.425Z,8.50
2018-03-24T10:34:21.967Z,9.67
2018-03-24T10:36:52.546Z,10.43
2018-03-24T10:39:21.111Z,12.37
2018-03-24T10:41:50.383Z,9.77
2018-03-24T10:44:19.647Z,7.97
2018-03-24T10:46:48.765Z,8.20
2018-03-24T10:49:17.512Z,8.90
2018-03-24T10:51:46.723Z,8.80
2018-03-24T10:54:16.003Z,9.00
2018-03-24T10:56:44.964Z,10.73
2018-03-24T10:59:16.415Z,7.53
2018-03-24T11:01:45.614Z,7.60
2018-03-24T11:04:15.393Z,8.70
2018-03-24T11:06:43.816Z,8.93
2018-03-24T11:09:13.115Z,9.80
2018-03-24T11:11:41.473Z,10.43
2018-03-24T11:14:10.503Z,9.50
2018-03-24T11:16:40.924Z,9.57
2018-03-24T11:19:09.303Z,11.37
2018-03-24T11:21:37.678Z,9.60
2018-03-24T11:24:06.687Z,8.63
2018-03-24T11:26:36.021Z,10.30
2018-03-24T11:29:05.704Z,16.70
2018-03-24T11:31:34.592Z,11.43
2018-03-24T11:34:06.249Z,11.87
2018-03-24T11:36:36.020Z,13.00
2018-03-24T11:39:08.159Z,12.50
2018-03-24T11:41:39.056Z,11.13
2018-03-24T11:44:07.405Z,10.37
2018-03-24T11:46:35.817Z,12.97
2018-03-24T11:49:04.942Z,10.60
2018-03-24T11:51:34.083Z,10.63
2018-03-24T11:54:03.211Z,13.10
2018-03-24T11:56:36.277Z,20.00
2018-03-24T11:59:06.383Z,12.00
2018-03-24T12:01:35.108Z,11.97
2018-03-24T12:04:03.555Z,11.57
2018-03-24T12:06:31.975Z,9.40
2018-03-24T12:09:01.166Z,10.07
2018-03-24T12:11:31.183Z,9.77
2018-03-24T12:13:59.891Z,9.33
2018-03-24T12:16:30.022Z,8.87
2018-03-24T12:18:59.220Z,9.50
2018-03-24T12:21:27.583Z,9.07
2018-03-24T12:23:55.972Z,10.27
2018-03-24T12:26:28.205Z,11.37
2018-03-24T12:28:57.326Z,10.07
2018-03-24T12:31:26.432Z,9.57
2018-03-24T12:33:59.437Z,9.03
2018-03-24T12:36:28.668Z,8.60
2018-03-24T12:38:58.491Z,9.27
2018-03-24T12:41:28.418Z,9.17
2018-03-24T12:43:57.498Z,9.30
2018-03-24T12:46:25.867Z,9.37
2018-03-24T12:48:54.845Z,8.93
2018-03-24T12:51:24.143Z,9.13
2018-03-24T12:53:52.442Z,8.57
2018-03-24T12:56:21.216Z,8.73
2018-03-24T12:58:50.488Z,9.30
2018-03-24T13:01:18.883Z,9.90
2018-03-24T13:03:47.234Z,9.07
2018-03-24T13:06:15.655Z,8.53
2018-03-24T13:08:43.993Z,9.13
2018-03-24T13:11:12.841Z,9.80
2018-03-24T13:13:41.317Z,8.83
2018-03-24T13:16:10.002Z,8.93
2018-03-24T13:18:38.341Z,9.37
2018-03-24T13:21:07.583Z,12.93
2018-03-24T13:23:36.059Z,10.23
2018-03-24T13:26:04.440Z,10.20
2018-03-24T13:28:33.019Z,10.07
2018-03-24T13:31:01.444Z,10.47
2018-03-24T13:33:29.780Z,9.27
2018-03-24T13:35:58.939Z,8.83
2018-03-24T13:38:29.531Z,8.70
2018-03-24T13:40:57.884Z,8.97
2018-03-24T13:43:26.554Z,8.80
2018-03-24T13:45:55.580Z,8.50
2018-03-24T13:48:24.146Z,8.40
2018-03-24T13:50:53.222Z,8.10
2018-03-24T13:53:21.583Z,8.37
2018-03-24T13:55:49.946Z,7.70
2018-03-24T13:58:18.365Z,8.20
2018-03-24T14:00:48.561Z,7.77
2018-03-24T14:03:16.914Z,8.00
2018-03-24T14:05:45.242Z,8.47
2018-03-24T14:08:13.673Z,7.93
2018-03-24T14:10:45.100Z,8.57
2018-03-24T14:13:14.610Z,8.30
2018-03-24T14:15:43.724Z,9.37
2018-03-24T14:18:13.055Z,9.37
2018-03-24T14:20:41.761Z,9.20
2018-03-24T14:23:12.946Z,8.27
2018-03-24T14:25:41.277Z,8.93
2018-03-24T14:28:12.688Z,9.17
2018-03-24T14:30:41.947Z,8.50
2018-03-24T14:33:10.320Z,7.53
2018-03-24T14:35:38.663Z,9.47
2018-03-24T14:38:07.956Z,9.60
2018-03-24T14:40:36.392Z,8.87
2018-03-24T14:43:04.764Z,8.63
2018-03-24T14:45:33.099Z,7.53
2018-03-24T14:48:02.520Z,8.67
2018-03-24T14:50:31.446Z,8.53
2018-03-24T14:52:59.846Z,9.13
2018-03-24T14:55:28.190Z,10.80
2018-03-24T14:57:57.531Z,9.93
2018-03-24T15:00:26.255Z,11.37
2018-03-24T15:02:54.726Z,9.10
2018-03-24T15:05:23.144Z,8.20
2018-03-24T15:07:52.400Z,9.33
2018-03-24T15:10:21.278Z,8.80
2018-03-24T15:12:49.688Z,8.60
2018-03-24T15:15:18.954Z,8.33
2018-03-24T15:17:47.352Z,8.77
2018-03-24T15:20:15.687Z,9.07
2018-03-24T15:22:44.132Z,9.80
2018-03-24T15:25:14.110Z,7.90
2018-03-24T15:27:42.849Z,8.63
2018-03-24T15:30:24.520Z,7.83
2018-03-24T15:32:53.841Z,8.40
2018-03-24T15:35:32.393Z,9.03
2018-03-24T15:38:01.316Z,13.27
2018-03-24T15:40:31.484Z,15.37
2018-03-24T15:42:59.867Z,11.00
2018-03-24T15:45:28.378Z,7.30
2018-03-24T15:47:56.791Z,7.47
2018-03-24T15:50:25.164Z,8.00
2018-03-24T15:52:53.616Z,8.53
2018-03-24T15:55:22.273Z,7.53
2018-03-24T15:57:51.520Z,7.77
2018-03-24T16:00:19.858Z,8.10
2018-03-24T16:02:48.228Z,8.33
2018-03-24T16:05:16.587Z,13.30
2018-03-24T16:07:45.265Z,11.87
2018-03-24T16:10:14.385Z,9.30
2018-03-24T16:12:46.599Z,7.70
2018-03-24T16:15:16.506Z,8.40
2018-03-24T16:17:44.841Z,8.17
2018-03-24T16:20:13.176Z,8.40
2018-03-24T16:22:41.556Z,8.30
2018-03-24T16:25:10.178Z,7.30
2018-03-24T16:27:39.468Z,7.80
2018-03-24T16:30:07.831Z,8.20
2018-03-24T16:32:36.199Z,7.20
2018-03-24T16:35:07.311Z,10.83
2018-03-24T16:37:36.423Z,9.20
2018-03-24T16:40:05.488Z,7.83
2018-03-24T16:42:34.026Z,6.93
2018-03-24T16:45:02.742Z,7.63
2018-03-24T16:47:31.152Z,6.70
2018-03-24T16:49:59.777Z,7.30
2018-03-24T16:52:28.196Z,6.47
2018-03-24T16:54:56.617Z,6.57
2018-03-24T16:57:26.297Z,7.40
2018-03-24T16:59:54.720Z,7.00
2018-03-24T17:02:25.175Z,6.93
2018-03-24T17:04:53.550Z,7.10
2018-03-24T17:07:23.227Z,7.10
2018-03-24T17:09:51.569Z,7.77
2018-03-24T17:12:20.387Z,16.97
2018-03-24T17:14:51.335Z,12.40
2018-03-24T17:17:24.013Z,10.87
2018-03-24T17:19:52.348Z,10.57
2018-03-24T17:22:21.247Z,8.40
2018-03-24T17:24:49.586Z,10.03
2018-03-24T17:27:18.912Z,20.80
2018-03-24T17:29:51.016Z,10.10
2018-03-24T17:32:19.391Z,10.20
2018-03-24T17:34:48.016Z,13.50
2018-03-24T17:37:17.457Z,7.90
2018-03-24T17:39:46.982Z,7.63
2018-03-24T17:42:16.156Z,21.53
2018-03-24T17:44:45.544Z,12.23
2018-03-24T17:47:14.150Z,8.87
2018-03-24T17:49:42.562Z,9.27
2018-03-24T17:52:11.740Z,10.70
2018-03-24T17:54:40.792Z,10.17
2018-03-24T17:57:09.135Z,9.63
2018-03-24T17:59:37.536Z,10.60
2018-03-24T18:02:06.561Z,12.23
2018-03-24T18:04:35.674Z,11.50
2018-03-24T18:07:04.474Z,12.10
2018-03-24T18:09:32.923Z,13.93
2018-03-24T18:12:02.327Z,15.00
2018-03-24T18:14:32.033Z,10.90
2018-03-24T18:17:00.927Z,9.87
2018-03-24T18:19:30.496Z,10.43
2018-03-24T18:21:58.809Z,7.13
2018-03-24T18:24:28.043Z,7.17
2018-03-24T18:26:57.538Z,6.93
2018-03-24T18:29:27.449Z,6.87
2018-03-24T18:31:56.582Z,7.93
2018-03-24T18:34:25.246Z,9.63
2018-03-24T18:36:55.324Z,6.40
2018-03-24T18:39:24.559Z,9.10
2018-03-24T18:41:53.860Z,8.00
2018-03-24T18:44:23.237Z,6.97
2018-03-24T18:46:52.550Z,8.00
2018-03-24T18:49:21.185Z,10.60
2018-03-24T18:51:49.521Z,10.00
2018-03-24T18:54:18.292Z,8.57
2018-03-24T18:56:48.153Z,6.33
2018-03-24T18:59:17.544Z,7.10
2018-03-24T19:01:47.634Z,7.83
2018-03-24T19:04:16.072Z,13.90
2018-03-24T19:06:44.458Z,7.33
2018-03-24T19:09:13.633Z,7.20
2018-03-24T19:11:42.775Z,6.53
2018-03-24T19:14:11.840Z,8.00
2018-03-24T19:16:40.551Z,8.30
2018-03-24T19:19:09.707Z,8.30
2018-03-24T19:21:38.081Z,7.73
2018-03-24T19:24:06.815Z,10.57
2018-03-24T19:26:35.167Z,9.90
2018-03-24T19:29:03.650Z,10.23
2018-03-24T19:31:32.441Z,9.73
2018-03-24T19:34:00.779Z,13.23
2018-03-24T19:36:29.198Z,12.10
2018-03-24T19:38:58.487Z,11.47
2018-03-24T19:41:26.955Z,10.03
2018-03-24T19:43:55.310Z,9.60
2018-03-24T19:46:23.722Z,10.00
2018-03-24T19:48:53.002Z,10.60
2018-03-24T19:51:22.098Z,10.50
2018-03-24T19:53:51.388Z,8.77
2018-03-24T19:56:21.525Z,8.13
2018-03-24T19:58:49.901Z,7.50
2018-03-24T20:01:22.085Z,7.10
2018-03-24T20:03:52.357Z,7.53
2018-03-24T20:06:20.735Z,7.10
2018-03-24T20:08:49.464Z,17.33
2018-03-24T20:11:17.808Z,17.00
2018-03-24T20:13:46.227Z,15.93
2018-03-24T20:16:14.560Z,18.80
2018-03-24T20:18:43.086Z,15.03
2018-03-24T20:21:13.826Z,12.93
2018-03-24T20:23:43.366Z,12.57
2018-03-24T20:26:11.727Z,18.70
2018-03-24T20:28:41.596Z,17.17
2018-03-24T20:31:09.939Z,16.30
2018-03-24T20:33:38.806Z,12.97
2018-03-24T20:36:07.139Z,12.63
2018-03-24T20:38:35.561Z,20.13
2018-03-24T20:41:04.944Z,19.63
2018-03-24T20:43:33.319Z,23.07
2018-03-24T20:46:01.768Z,32.10
2018-03-24T20:48:30.334Z,22.47
2018-03-24T20:50:59.343Z,18.83
2018-03-24T20:53:27.711Z,9.77
2018-03-24T20:55:57.046Z,9.20
2018-03-24T20:58:25.655Z,9.90
2018-03-24T21:00:55.536Z,10.00
2018-03-24T21:03:25.506Z,9.70
2018-03-24T21:05:55.574Z,9.10
2018-03-24T21:08:24.017Z,10.33
2018-03-24T21:10:52.904Z,11.00
2018-03-24T21:13:22.164Z,11.97
2018-03-24T21:15:50.513Z,10.97
2018-03-24T21:18:20.249Z,10.30
2018-03-24T21:20:49.535Z,10.40
2018-03-24T21:23:18.810Z,9.57
2018-03-24T21:25:47.407Z,9.63
2018-03-24T21:28:15.753Z,10.03
2018-03-24T21:30:44.166Z,8.73
2018-03-24T21:33:13.352Z,8.93
2018-03-24T21:35:41.712Z,8.97
2018-03-24T21:38:10.781Z,11.30
2018-03-24T21:40:39.437Z,11.83
2018-03-24T21:43:07.766Z,13.93
2018-03-24T21:45:36.575Z,16.67
2018-03-24T21:48:04.907Z,14.63
2018-03-24T21:50:33.293Z,15.07
2018-03-24T21:53:01.616Z,12.90
2018-03-24T21:55:30.900Z,12.43
2018-03-24T21:58:01.292Z,11.83
2018-03-24T22:00:31.203Z,11.83
2018-03-24T22:03:00.526Z,10.67
2018-03-24T22:05:30.659Z,9.47
2018-03-24T22:07:58.989Z,10.33
2018-03-24T22:10:27.723Z,9.93
2018-03-24T22:12:56.099Z,10.40
2018-03-24T22:15:24.708Z,9.80
2018-03-24T22:17:53.900Z,10.20
2018-03-24T22:20:23.501Z,9.00
2018-03-24T22:22:56.451Z,9.90
2018-03-24T22:25:25.526Z,8.43
2018-03-24T22:27:54.766Z,9.30
2018-03-24T22:30:23.538Z,8.90
2018-03-24T22:32:53.631Z,9.10
2018-03-24T22:35:22.669Z,10.50
2018-03-24T22:37:52.405Z,9.23
2018-03-24T22:40:22.186Z,9.20
2018-03-24T22:42:50.516Z,9.13
2018-03-24T22:45:18.987Z,10.20
2018-03-24T22:47:48.589Z,10.00
2018-03-24T22:50:16.943Z,11.87
2018-03-24T22:52:46.139Z,10.70
2018-03-24T22:55:14.515Z,10.80
2018-03-24T22:57:42.849Z,10.37
2018-03-24T23:00:12.448Z,10.90
2018-03-24T23:02:41.784Z,10.60
2018-03-24T23:05:11.028Z,11.23
2018-03-24T23:07:40.066Z,12.03
2018-03-24T23:10:10.141Z,11.20
2018-03-24T23:12:39.085Z,10.73
2018-03-24T23:15:07.466Z,10.57
2018-03-24T23:17:35.878Z,10.17
2018-03-24T23:20:04.292Z,11.50
2018-03-24T23:22:32.645Z,12.43
2018-03-24T23:25:02.821Z,43.87
2018-03-24T23:27:32.627Z,20.93
2018-03-24T23:30:00.959Z,12.40
2018-03-24T23:32:30.231Z,12.40
2018-03-24T23:34:58.559Z,12.03
2018-03-24T23:37:27.013Z,12.87
2018-03-24T23:39:56.721Z,10.77
2018-03-24T23:42:27.359Z,11.03
2018-03-24T23:44:56.511Z,11.93
2018-03-24T23:47:24.911Z,11.07
2018-03-24T23:49:54.178Z,11.20
2018-03-24T23:52:23.426Z,11.53
2018-03-24T23:54:52.171Z,10.20
2018-03-24T23:57:20.553Z,10.90
2018-03-24T23:59:48.879Z,9.70
